createdAt,value
2022-11-28T00:01:50.692Z,82.32
2022-11-28T00:04:19.479Z,82.64
2022-11-28T00:06:51.466Z,83.30
2022-11-28T00:09:22.298Z,83.63
2022-11-28T00:11:53.968Z,83.51
2022-11-28T00:14:22.727Z,83.51
2022-11-28T00:16:51.385Z,83.35
2022-11-28T00:19:19.979Z,82.98
2022-11-28T00:21:48.796Z,83.24
2022-11-28T00:24:17.390Z,83.55
2022-11-28T00:26:46.015Z,83.68
2022-11-28T00:29:14.684Z,83.88
2022-11-28T00:31:44.196Z,83.61
2022-11-28T00:34:15.409Z,83.58
2022-11-28T00:36:46.554Z,83.35
2022-11-28T00:39:16.449Z,83.40
2022-11-28T00:41:45.838Z,83.21
2022-11-28T00:44:15.104Z,83.39
2022-11-28T00:46:44.238Z,83.64
2022-11-28T00:49:13.082Z,83.76
2022-11-28T00:51:41.801Z,83.79
2022-11-28T00:54:10.649Z,83.51
2022-11-28T00:56:41.199Z,82.89
2022-11-28T00:59:09.864Z,82.95
2022-11-28T01:01:43.918Z,82.88
2022-11-28T01:04:17.586Z,82.75
2022-11-28T01:10:22.636Z,83.31
2022-11-28T01:12:51.345Z,83.37
2022-11-28T01:15:20.022Z,83.08
2022-11-28T01:17:48.632Z,82.95
2022-11-28T01:20:17.522Z,81.97
2022-11-28T01:22:46.189Z,81.88
2022-11-28T01:25:15.013Z,82.37
2022-11-28T01:27:43.639Z,82.15
2022-11-28T01:30:12.591Z,81.75
2022-11-28T01:32:41.507Z,81.72
2022-11-28T01:35:10.173Z,82.03
2022-11-28T01:43:00.023Z,82.70
2022-11-28T01:45:32.356Z,83.10
2022-11-28T01:48:03.996Z,82.90
2022-11-28T01:50:35.266Z,82.68
2022-11-28T01:53:08.888Z,82.48
2022-11-28T01:55:57.816Z,82.46
2022-11-28T01:58:26.872Z,82.43
2022-11-28T02:00:55.965Z,82.11
2022-11-28T02:03:35.094Z,82.09
2022-11-28T02:06:04.136Z,81.96
2022-11-28T02:08:36.868Z,82.00
2022-11-28T02:11:38.851Z,82.47
2022-11-28T02:14:48.523Z,82.84
2022-11-28T02:17:45.785Z,82.92
2022-11-28T02:21:28.236Z,82.73
2022-11-28T02:24:38.065Z,82.88
2022-11-28T02:27:12.039Z,82.69
2022-11-28T02:30:16.636Z,82.56
2022-11-28T02:33:00.880Z,82.50
2022-11-28T02:35:46.022Z,82.64
2022-11-28T02:38:20.329Z,82.76
2022-11-28T02:40:48.760Z,83.21
2022-11-28T02:44:04.428Z,83.24
2022-11-28T02:47:20.845Z,83.05
2022-11-28T02:50:18.891Z,83.12
2022-11-28T02:52:54.122Z,83.12
2022-11-28T02:55:44.000Z,83.25
2022-11-28T02:58:13.297Z,82.98
2022-11-28T03:00:45.781Z,82.71
2022-11-28T03:03:33.434Z,82.86
2022-11-28T03:06:23.463Z,82.46
2022-11-28T03:09:39.418Z,82.22
2022-11-28T03:13:14.732Z,82.60
2022-11-28T03:16:27.785Z,82.63
2022-11-28T03:19:19.133Z,83.04
2022-11-28T03:22:18.790Z,83.18
2022-11-28T03:24:56.931Z,83.41
2022-11-28T03:27:36.259Z,84.16
2022-11-28T03:30:26.407Z,83.57
2022-11-28T03:32:57.317Z,84.51
2022-11-28T03:35:34.298Z,84.36
2022-11-28T03:38:32.208Z,84.33
2022-11-28T03:41:36.122Z,84.02
2022-11-28T03:44:54.051Z,84.01
2022-11-28T03:47:30.967Z,83.94
2022-11-28T03:50:08.647Z,84.03
2022-11-28T03:52:46.681Z,83.99
2022-11-28T03:55:32.381Z,84.78
2022-11-28T03:58:50.392Z,85.59
2022-11-28T04:01:36.993Z,85.81
2022-11-28T04:04:42.148Z,85.53
2022-11-28T04:07:47.549Z,86.09
2022-11-28T04:11:14.753Z,86.39
2022-11-28T04:13:48.826Z,86.95
2022-11-28T04:17:08.290Z,86.32
2022-11-28T04:20:12.966Z,85.86
2022-11-28T04:22:55.717Z,85.85
2022-11-28T04:25:26.189Z,85.33
2022-11-28T04:28:05.522Z,85.52
2022-11-28T04:30:36.325Z,85.52
2022-11-28T04:33:10.156Z,84.72
2022-11-28T04:35:46.036Z,84.40
2022-11-28T04:41:41.373Z,84.35
2022-11-28T04:44:27.570Z,83.72
2022-11-28T04:47:03.778Z,83.73
2022-11-28T04:49:33.132Z,83.42
2022-11-28T05:05:52.131Z,81.85
2022-11-28T05:08:21.557Z,80.09
2022-11-28T05:10:50.570Z,80.29
2022-11-28T05:13:19.513Z,81.19
2022-11-28T05:15:51.276Z,81.40
2022-11-28T05:18:20.217Z,81.59
2022-11-28T05:20:49.412Z,81.89
2022-11-28T05:23:20.111Z,81.93
2022-11-28T05:25:48.913Z,81.77
2022-11-28T05:28:18.611Z,81.71
2022-11-28T05:31:02.997Z,82.23
2022-11-28T05:33:37.095Z,82.09
2022-11-28T05:36:14.172Z,82.12
2022-11-28T05:38:44.181Z,81.94
2022-11-28T05:41:29.096Z,81.62
2022-11-28T05:44:00.492Z,81.03
2022-11-28T05:46:30.830Z,81.26
2022-11-28T05:49:00.431Z,81.60
2022-11-28T05:51:29.366Z,81.44
2022-11-28T05:53:58.345Z,80.89
2022-11-28T05:56:27.150Z,83.21
2022-11-28T05:58:55.987Z,84.56
2022-11-28T06:01:32.498Z,85.81
2022-11-28T06:04:02.573Z,85.84
2022-11-28T06:06:34.787Z,85.77
2022-11-28T06:09:06.316Z,86.00
2022-11-28T06:11:35.997Z,85.96
2022-11-28T06:14:04.903Z,87.90
2022-11-28T06:20:38.919Z,87.87
2022-11-28T06:23:08.107Z,89.08
2022-11-28T06:25:40.686Z,89.01
2022-11-28T06:28:53.881Z,88.76
2022-11-28T06:32:07.554Z,88.48
2022-11-28T06:34:48.038Z,89.06
2022-11-28T06:37:34.050Z,88.95
2022-11-28T06:40:23.466Z,88.56
2022-11-28T06:46:21.436Z,88.44
2022-11-28T06:48:53.923Z,88.05
2022-11-28T06:51:22.829Z,87.67
2022-11-28T06:53:58.144Z,87.67
2022-11-28T06:56:27.358Z,87.65
2022-11-28T06:58:59.086Z,87.91
2022-11-28T07:01:32.582Z,87.66
2022-11-28T07:04:02.964Z,87.25
2022-11-28T07:06:31.853Z,86.24
2022-11-28T07:09:01.816Z,86.16
2022-11-28T07:11:32.815Z,83.71
2022-11-28T07:14:03.110Z,82.31
2022-11-28T07:16:33.975Z,81.97
2022-11-28T07:22:20.265Z,80.42
2022-11-28T07:24:49.004Z,79.83
2022-11-28T07:27:18.166Z,80.08
2022-11-28T07:29:47.196Z,79.01
2022-11-28T07:32:16.030Z,79.20
2022-11-28T07:34:49.867Z,78.75
2022-11-28T07:37:18.851Z,78.91
2022-11-28T07:43:19.435Z,79.74
2022-11-28T07:46:00.465Z,79.95
2022-11-28T07:48:30.212Z,78.93
2022-11-28T07:50:59.144Z,79.26
2022-11-28T07:53:27.899Z,79.58
2022-11-28T07:56:17.457Z,79.57
2022-11-28T07:59:00.417Z,80.34
2022-11-28T08:01:36.304Z,80.80
2022-11-28T08:04:09.691Z,80.60
2022-11-28T08:07:03.453Z,80.71
2022-11-28T08:09:32.779Z,80.70
2022-11-28T08:12:01.524Z,81.24
2022-11-28T08:14:30.477Z,81.42
2022-11-28T08:17:03.709Z,82.30
2022-11-28T08:19:35.356Z,82.90
2022-11-28T08:22:07.145Z,82.95
2022-11-28T08:24:42.520Z,82.80
2022-11-28T08:27:13.106Z,83.46
2022-11-28T08:29:42.254Z,83.34
2022-11-28T08:32:11.551Z,83.25
2022-11-28T08:34:40.402Z,83.42
2022-11-28T08:37:09.207Z,83.17
2022-11-28T08:39:40.979Z,83.21
2022-11-28T08:42:14.039Z,83.15
2022-11-28T08:44:42.739Z,83.10
2022-11-28T08:47:11.588Z,83.50
2022-11-28T08:49:40.579Z,83.63
2022-11-28T08:52:09.549Z,83.65
2022-11-28T08:54:38.659Z,83.50
2022-11-28T08:57:07.383Z,83.34
2022-11-28T08:59:45.635Z,83.79
2022-11-28T09:02:15.687Z,83.75
2022-11-28T09:04:44.501Z,84.09
2022-11-28T09:07:32.882Z,84.23
2022-11-28T09:10:07.056Z,83.92
2022-11-28T09:13:10.599Z,83.79
2022-11-28T09:18:55.087Z,84.18
2022-11-28T09:21:38.754Z,84.34
2022-11-28T09:24:40.144Z,84.59
2022-11-28T09:27:18.848Z,85.13
2022-11-28T09:30:01.206Z,85.22
2022-11-28T09:32:31.681Z,85.59
2022-11-28T09:35:06.523Z,85.89
2022-11-28T09:37:52.101Z,85.81
2022-11-28T09:40:45.073Z,86.47
2022-11-28T09:44:14.042Z,85.88
2022-11-28T09:46:47.443Z,86.38
2022-11-28T09:50:20.616Z,86.31
2022-11-28T09:53:46.106Z,86.98
2022-11-28T10:10:55.742Z,86.33
2022-11-28T10:15:01.684Z,85.44
2022-11-28T10:18:40.278Z,85.38
2022-11-28T10:30:21.133Z,85.21
2022-11-28T10:34:35.884Z,85.07
2022-11-28T10:37:54.502Z,84.92
2022-11-28T10:41:22.800Z,84.94
2022-11-28T10:43:58.757Z,84.38
2022-11-28T10:47:12.461Z,83.97
2022-11-28T10:49:42.174Z,84.10
2022-11-28T10:53:13.830Z,84.58
2022-11-28T10:56:24.942Z,84.56
2022-11-28T10:59:32.092Z,84.56
2022-11-28T11:02:32.668Z,84.83
2022-11-28T11:05:11.132Z,84.58
2022-11-28T11:07:57.513Z,85.09
2022-11-28T11:11:02.515Z,85.25
2022-11-28T11:13:33.962Z,84.89
2022-11-28T11:16:09.793Z,84.97
2022-11-28T11:18:52.591Z,84.98
2022-11-28T13:45:39.526Z,81.20
2022-11-28T13:51:31.892Z,80.79
2022-11-28T13:54:21.599Z,80.74
2022-11-28T13:57:19.089Z,80.52
2022-11-28T14:00:24.267Z,79.58
2022-11-28T14:03:00.053Z,79.97
2022-11-28T14:19:26.859Z,81.10
2022-11-28T14:22:28.080Z,80.76
2022-11-28T14:25:32.419Z,80.30
2022-11-28T14:28:17.885Z,80.35
2022-11-28T14:30:49.364Z,80.27
2022-11-28T14:33:33.607Z,79.67
2022-11-28T14:36:25.163Z,79.77
2022-11-28T14:39:36.547Z,79.60
2022-11-28T14:42:09.014Z,79.78
2022-11-28T14:44:49.946Z,79.58
2022-11-28T14:47:39.676Z,79.75
2022-11-28T14:50:13.629Z,80.27
2022-11-28T14:52:46.617Z,80.14
2022-11-28T14:55:43.199Z,80.26
2022-11-28T14:58:58.513Z,79.74
2022-11-28T15:11:16.964Z,79.77
2022-11-28T15:14:56.133Z,79.69
2022-11-28T15:21:44.259Z,79.71
2022-11-28T15:27:27.999Z,80.33
2022-11-28T15:30:01.608Z,80.21
2022-11-28T15:32:34.546Z,80.26
2022-11-28T15:35:15.695Z,79.93
2022-11-28T15:41:50.866Z,80.14
2022-11-28T15:45:27.189Z,79.89
2022-11-28T15:47:58.269Z,79.80
2022-11-28T15:50:34.545Z,79.86
2022-11-28T15:53:16.848Z,79.88
2022-11-28T15:55:46.531Z,79.67
2022-11-28T15:58:31.333Z,79.56
2022-11-28T16:01:03.384Z,79.89
2022-11-28T16:03:46.036Z,80.18
2022-11-28T16:06:18.408Z,80.31
2022-11-28T16:08:55.940Z,79.85
2022-11-28T16:11:30.854Z,79.93
2022-11-28T16:17:40.861Z,79.92
2022-11-28T16:20:36.282Z,79.90
2022-11-28T16:23:21.149Z,80.09
2022-11-28T16:26:19.890Z,79.90
2022-11-28T16:29:18.267Z,79.26
2022-11-28T16:31:52.131Z,79.51
2022-11-28T16:34:47.142Z,79.48
2022-11-28T16:37:52.240Z,79.15
2022-11-28T16:40:24.324Z,78.68
2022-11-28T16:42:55.064Z,79.05
2022-11-28T16:45:33.921Z,79.46
2022-11-28T16:48:15.653Z,79.31
2022-11-28T16:51:15.225Z,79.16
2022-11-28T16:53:55.943Z,78.74
2022-11-28T16:56:34.458Z,78.98
2022-11-28T17:00:15.266Z,78.28
2022-11-28T17:02:53.137Z,78.29
2022-11-28T17:05:46.537Z,78.31
2022-11-28T17:08:18.391Z,78.62
2022-11-28T17:11:03.431Z,78.97
2022-11-28T17:13:34.582Z,79.37
2022-11-28T17:16:18.539Z,79.41
2022-11-28T17:18:57.027Z,78.80
2022-11-28T17:21:39.696Z,78.89
2022-11-28T17:24:27.745Z,79.50
2022-11-28T17:27:46.418Z,79.43
2022-11-28T17:30:19.098Z,79.22
2022-11-28T17:32:53.362Z,79.26
2022-11-28T17:35:30.058Z,79.35
2022-11-28T17:38:07.675Z,79.72
2022-11-28T17:40:42.502Z,79.94
2022-11-28T17:43:18.315Z,79.51
2022-11-28T17:45:49.234Z,79.50
2022-11-28T17:48:24.077Z,79.53
2022-11-28T17:51:09.736Z,79.61
2022-11-28T17:53:43.835Z,80.02
2022-11-28T17:56:17.553Z,79.80
2022-11-28T17:58:51.492Z,79.69
2022-11-28T18:01:31.938Z,80.03
2022-11-28T18:04:01.375Z,79.92
2022-11-28T18:06:32.397Z,79.99
2022-11-28T18:09:44.507Z,80.14
2022-11-28T18:12:23.665Z,80.63
2022-11-28T18:15:07.127Z,80.72
2022-11-28T18:17:42.453Z,80.41
2022-11-28T18:20:15.826Z,80.68
2022-11-28T18:22:48.885Z,80.71
2022-11-28T18:25:18.670Z,80.75
2022-11-28T18:27:50.159Z,80.92
2022-11-28T18:30:21.031Z,80.87
2022-11-28T18:32:52.784Z,80.81
2022-11-28T18:35:30.572Z,81.05
2022-11-28T18:38:01.869Z,81.08
2022-11-28T18:40:32.299Z,80.78
2022-11-28T18:43:07.219Z,80.63
2022-11-28T18:45:36.188Z,81.18
2022-11-28T18:48:05.047Z,81.18
2022-11-28T18:50:35.357Z,81.07
2022-11-28T18:53:04.141Z,81.20
2022-11-28T18:55:32.814Z,81.24
2022-11-28T18:58:01.896Z,81.09
2022-11-28T19:00:30.705Z,81.25
2022-11-28T19:03:00.166Z,81.01
2022-11-28T19:05:28.903Z,80.89
2022-11-28T19:07:57.944Z,80.99
2022-11-28T19:10:26.950Z,81.28
2022-11-28T19:12:55.593Z,81.20
2022-11-28T19:15:24.357Z,81.17
2022-11-28T19:17:53.070Z,81.40
2022-11-28T19:20:22.731Z,81.39
2022-11-28T19:22:52.510Z,81.38
2022-11-28T19:25:21.228Z,81.30
2022-11-28T19:27:50.170Z,80.97
2022-11-28T19:30:19.207Z,81.20
2022-11-28T19:32:48.087Z,81.00
2022-11-28T19:35:17.221Z,81.20
2022-11-28T19:37:45.916Z,81.24
2022-11-28T19:40:15.017Z,81.49
2022-11-28T19:42:43.782Z,81.53
2022-11-28T19:45:12.573Z,81.53
2022-11-28T19:47:42.577Z,81.48
2022-11-28T19:50:12.111Z,81.74
2022-11-28T19:52:40.763Z,81.68
2022-11-28T19:55:10.198Z,81.63
2022-11-28T19:57:40.283Z,81.71
2022-11-28T20:00:10.268Z,81.31
2022-11-28T20:02:42.328Z,81.48
2022-11-28T20:05:11.204Z,81.33
2022-11-28T20:07:39.962Z,81.33
2022-11-28T20:10:09.759Z,81.38
2022-11-28T20:12:38.458Z,81.44
2022-11-28T20:15:10.583Z,81.45
2022-11-28T20:17:42.771Z,81.78
2022-11-28T20:20:11.475Z,81.77
2022-11-28T20:22:42.718Z,81.98
2022-11-28T20:25:12.700Z,82.18
2022-11-28T20:27:44.795Z,82.55
2022-11-28T20:30:14.756Z,82.52
2022-11-28T20:32:44.483Z,82.42
2022-11-28T20:35:13.367Z,82.48
2022-11-28T20:37:42.034Z,82.73
2022-11-28T20:40:11.319Z,82.74
2022-11-28T20:42:40.359Z,82.85
2022-11-28T20:45:09.819Z,83.02
2022-11-28T20:47:39.103Z,83.17
2022-11-28T20:50:08.875Z,83.62
2022-11-28T20:52:37.367Z,83.24
2022-11-28T20:55:06.925Z,83.00
2022-11-28T20:57:35.607Z,83.49
2022-11-28T21:00:05.060Z,83.51
2022-11-28T21:02:33.899Z,83.26
2022-11-28T21:05:02.618Z,82.93
2022-11-28T21:07:31.931Z,83.07
2022-11-28T21:10:04.094Z,83.30
2022-11-28T21:12:34.531Z,83.20
2022-11-28T21:15:04.635Z,83.58
2022-11-28T21:17:33.317Z,83.37
2022-11-28T21:20:01.983Z,83.22
2022-11-28T21:22:32.361Z,83.05
2022-11-28T21:25:01.089Z,83.14
2022-11-28T21:27:29.783Z,83.10
2022-11-28T21:29:58.731Z,83.23
2022-11-28T21:32:28.702Z,83.06
2022-11-28T21:35:02.582Z,83.13
2022-11-28T21:37:33.978Z,83.65
2022-11-28T21:40:02.781Z,83.76
2022-11-28T21:42:32.657Z,83.63
2022-11-28T21:45:01.216Z,83.34
2022-11-28T21:47:30.453Z,84.12
2022-11-28T21:50:03.917Z,84.15
2022-11-28T21:53:47.779Z,83.99
2022-11-28T21:56:17.150Z,84.05
2022-11-28T21:58:45.935Z,83.64
2022-11-28T22:01:15.679Z,83.36
2022-11-28T22:03:44.299Z,83.20
2022-11-28T22:06:18.323Z,83.80
2022-11-28T22:08:48.847Z,83.83
2022-11-28T22:11:19.487Z,84.12
2022-11-28T22:13:49.324Z,84.80
2022-11-28T22:16:23.909Z,84.56
2022-11-28T22:18:57.796Z,84.41
2022-11-28T22:24:15.400Z,84.16
2022-11-28T22:26:47.132Z,84.14
2022-11-28T22:29:15.669Z,84.30
2022-11-28T22:35:03.718Z,84.89
2022-11-28T22:37:32.250Z,84.97
2022-11-28T22:40:00.936Z,84.57
2022-11-28T22:42:29.839Z,84.58
2022-11-28T22:44:59.050Z,84.57
2022-11-28T22:47:28.827Z,84.53
2022-11-28T22:49:57.287Z,84.63
2022-11-28T22:52:25.806Z,84.89
2022-11-28T22:54:54.422Z,85.15
2022-11-28T22:57:22.956Z,85.07
2022-11-28T22:59:51.497Z,85.20
2022-11-28T23:02:20.408Z,84.34
2022-11-28T23:04:49.051Z,84.56
2022-11-28T23:07:17.928Z,84.56
2022-11-28T23:09:46.424Z,85.01
2022-11-28T23:12:15.195Z,85.09
2022-11-28T23:14:44.157Z,85.43
2022-11-28T23:17:12.896Z,85.62
2022-11-28T23:19:44.395Z,85.69
2022-11-28T23:22:12.901Z,85.88
2022-11-28T23:24:41.549Z,86.15
2022-11-28T23:27:10.931Z,86.26
2022-11-28T23:29:40.979Z,86.13
2022-11-28T23:32:09.759Z,86.40
2022-11-28T23:34:38.309Z,86.80
2022-11-28T23:37:06.965Z,86.71
2022-11-28T23:39:35.548Z,86.82
2022-11-28T23:42:05.514Z,86.98
2022-11-28T23:44:33.959Z,86.40
2022-11-28T23:47:02.421Z,86.22
2022-11-28T23:49:30.852Z,86.75
2022-11-28T23:51:59.541Z,86.76
2022-11-28T23:54:28.072Z,87.22
2022-11-28T23:56:56.770Z,87.33
2022-11-28T23:59:25.494Z,87.14
